Time;durP1;ratioP1;P1;durP2;ratioP2;P2;SDS_P1;SDS_P2;PMS_P1;PMS_P2;Temp;Humidity;BMP_temperature;BMP_pressure;BME280_temperature;BME280_humidity;BME280_pressure;Samples;Min_cycle;Max_cycle;Signal;HPM_P1;HPM_P2
2023/04/18 00:01:35;;;;;;;78.05;13.30;;;11.00;1.00;;;;;;4882849;29;20185;-83
2023/04/18 00:25:12;;;;;;;79.43;13.95;;;10.40;7.40;;;;;;4916992;29;20204;-83
2023/04/18 00:35:47;;;;;;;76.47;11.25;;;10.20;8.90;;;;;;4943152;29;20276;-83
2023/04/18 01:04:03;;;;;;;;;;;;;;;;;;;;;
2023/04/18 01:17:15;;;;;;;76.18;12.23;;;8.70;56.40;;;;;;4941955;29;20727;-83
2023/04/18 01:27:16;;;;;;;;;;;;;;;;;;;;;
2023/04/18 01:38:01;;;;;;;80.88;13.75;;;8.20;74.70;;;;;;5001178;28;20538;-83
2023/04/18 02:02:26;;;;;;;76.80;14.23;;;7.30;96.80;;;;;;4941907;29;20261;-83
2023/04/18 02:04:51;;;;;;;80.00;14.63;;;7.30;95.90;;;;;;5111689;22;20229;-88
2023/04/18 02:07:17;;;;;;;77.47;14.93;;;7.20;97.40;;;;;;5020270;28;20161;-87
2023/04/18 02:09:43;;;;;;;80.03;14.50;;;7.10;98.40;;;;;;5020569;28;20173;-88
2023/04/18 02:12:08;;;;;;;77.10;14.20;;;7.20;99.90;;;;;;5020744;28;20703;-88
2023/04/18 02:14:35;;;;;;;79.03;15.30;;;7.10;97.80;;;;;;5020056;28;20550;-88
2023/04/18 02:17:01;;;;;;;75.93;13.93;;;7.10;97.70;;;;;;5021891;28;20408;-88
2023/04/18 02:19:28;;;;;;;76.40;14.73;;;7.00;99.90;;;;;;5020141;28;20197;-88
2023/04/18 02:21:54;;;;;;;82.40;14.63;;;6.90;99.90;;;;;;5024743;28;20227;-87
2023/04/18 02:24:19;;;;;;;78.37;14.77;;;6.90;99.90;;;;;;5038709;28;20656;-88
2023/04/18 02:26:45;;;;;;;80.67;14.53;;;6.80;99.90;;;;;;5023506;28;20211;-88
2023/04/18 02:29:11;;;;;;;77.07;16.00;;;6.70;99.90;;;;;;5024298;28;20173;-88
2023/04/18 02:31:39;;;;;;;74.37;14.40;;;6.70;99.90;;;;;;5023010;28;20416;-88
2023/04/18 02:34:05;;;;;;;76.78;15.90;;;6.70;99.90;;;;;;5022574;28;20216;-88
2023/04/18 02:36:31;;;;;;;80.32;15.93;;;6.70;99.90;;;;;;5039304;28;20268;-88
2023/04/18 02:38:57;;;;;;;77.97;13.67;;;6.70;99.90;;;;;;5021971;28;20224;-88
2023/04/18 02:41:22;;;;;;;75.97;12.93;;;6.60;99.90;;;;;;5023545;28;20166;-88
2023/04/18 02:43:48;;;;;;;76.60;14.90;;;6.60;99.90;;;;;;5022019;28;20186;-88
2023/04/18 02:46:14;;;;;;;77.63;16.83;;;6.60;99.90;;;;;;5023152;28;20633;-88
2023/04/18 02:48:40;;;;;;;84.40;17.77;;;6.50;99.90;;;;;;5023101;28;20173;-88
2023/04/18 02:51:07;;;;;;;77.67;16.37;;;6.60;99.90;;;;;;5022817;28;20404;-88
2023/04/18 02:53:34;;;;;;;81.78;16.88;;;6.60;99.90;;;;;;5022841;28;20182;-87
2023/04/18 02:56:00;;;;;;;79.18;17.80;;;6.50;99.90;;;;;;5023534;28;20575;-88
2023/04/18 02:58:26;;;;;;;79.70;19.38;;;6.40;99.90;;;;;;5038265;28;20227;-88
2023/04/18 03:00:53;;;;;;;84.45;17.02;;;6.40;99.90;;;;;;5023292;28;20166;-88
2023/04/18 03:03:22;;;;;;;77.30;16.83;;;6.40;99.90;;;;;;5022576;28;20182;-87
2023/04/18 03:05:48;;;;;;;77.35;16.45;;;6.40;99.90;;;;;;5023070;28;20228;-88
2023/04/18 03:08:15;;;;;;;80.90;21.10;;;6.40;99.90;;;;;;5021692;28;20174;-88
2023/04/18 03:10:41;;;;;;;78.93;21.60;;;6.30;99.90;;;;;;5021294;28;20181;-87
2023/04/18 03:13:06;;;;;;;84.60;24.48;;;6.20;99.90;;;;;;5021050;28;20170;-88
2023/04/18 03:15:32;;;;;;;82.63;24.87;;;6.20;99.90;;;;;;5022813;28;20170;-89
2023/04/18 03:17:58;;;;;;;82.47;27.40;;;6.20;99.90;;;;;;5022510;28;20168;-87
2023/04/18 03:20:24;;;;;;;85.47;27.67;;;6.10;99.90;;;;;;5021394;28;20166;-88
2023/04/18 03:22:50;;;;;;;79.95;22.42;;;6.10;99.90;;;;;;5038162;28;20166;-87
2023/04/18 03:25:15;;;;;;;83.27;22.33;;;6.10;99.90;;;;;;5037589;28;20181;-87
2023/04/18 03:27:42;;;;;;;88.77;23.23;;;6.20;99.90;;;;;;5022430;28;20172;-88
2023/04/18 03:30:09;;;;;;;81.47;24.17;;;6.10;99.90;;;;;;5037258;28;20170;-88
2023/04/18 03:32:35;;;;;;;82.57;24.77;;;6.10;99.90;;;;;;5020361;28;20257;-88
2023/04/18 03:35:02;;;;;;;77.50;19.03;;;6.00;99.90;;;;;;5021329;28;20232;-88
2023/04/18 03:37:28;;;;;;;83.45;22.95;;;6.00;99.90;;;;;;5037241;28;20413;-87
2023/04/18 03:39:53;;;;;;;82.97;27.20;;;6.00;99.90;;;;;;5022091;28;20274;-88
2023/04/18 03:42:19;;;;;;;82.70;29.17;;;6.00;99.90;;;;;;5037185;28;20420;-88
2023/04/18 03:44:45;;;;;;;81.33;24.37;;;6.00;99.90;;;;;;5020779;28;20428;-88
2023/04/18 03:47:11;;;;;;;84.87;28.30;;;5.90;99.90;;;;;;5021827;28;20404;-88
2023/04/18 03:49:37;;;;;;;87.03;28.80;;;5.80;99.90;;;;;;5020715;28;20419;-88
2023/04/18 03:52:03;;;;;;;82.53;28.48;;;5.80;99.90;;;;;;5021711;28;20165;-88
2023/04/18 03:54:29;;;;;;;81.33;27.97;;;5.70;99.90;;;;;;5037288;28;20190;-88
2023/04/18 03:56:56;;;;;;;83.93;29.27;;;5.60;99.90;;;;;;5022603;28;20409;-88
2023/04/18 03:59:22;;;;;;;81.28;26.75;;;5.60;99.90;;;;;;5022731;28;20519;-88
2023/04/18 04:01:47;;;;;;;84.07;28.07;;;5.60;99.90;;;;;;5037216;28;20173;-88
2023/04/18 04:04:14;;;;;;;84.17;29.13;;;5.50;99.90;;;;;;5022236;28;20202;-88
2023/04/18 04:06:40;;;;;;;82.47;26.92;;;5.60;99.90;;;;;;5022650;28;20182;-88
2023/04/18 04:09:06;;;;;;;82.57;29.30;;;5.50;99.90;;;;;;5022448;28;20197;-87
2023/04/18 04:11:31;;;;;;;80.80;29.50;;;5.50;99.90;;;;;;5020975;28;20557;-88
2023/04/18 04:13:57;;;;;;;85.10;29.03;;;5.50;99.90;;;;;;5021724;28;20182;-89
2023/04/18 04:16:23;;;;;;;81.47;27.20;;;5.50;99.90;;;;;;5022056;28;20192;-88
2023/04/18 04:18:48;;;;;;;82.40;27.90;;;5.50;99.90;;;;;;5021935;28;20547;-88
2023/04/18 04:21:14;;;;;;;82.30;25.33;;;5.50;99.90;;;;;;5021657;28;20222;-88
2023/04/18 04:23:41;;;;;;;81.93;25.43;;;5.50;99.90;;;;;;5037661;28;20189;-88
2023/04/18 04:26:07;;;;;;;82.05;22.48;;;5.50;99.90;;;;;;5037673;28;20496;-87
2023/04/18 04:28:34;;;;;;;84.10;24.30;;;5.50;99.90;;;;;;5021817;28;20198;-88
2023/04/18 04:31:02;;;;;;;82.57;24.73;;;5.50;99.90;;;;;;5019780;28;20178;-88
2023/04/18 04:33:27;;;;;;;85.00;24.00;;;5.40;99.90;;;;;;5021360;28;20210;-88
2023/04/18 04:35:55;;;;;;;84.83;20.03;;;5.50;99.90;;;;;;5039957;28;20177;-87
2023/04/18 04:38:23;;;;;;;80.18;20.00;;;5.50;99.90;;;;;;5025792;28;20662;-89
2023/04/18 04:40:49;;;;;;;80.55;19.17;;;5.50;99.90;;;;;;5022786;28;20162;-88
2023/04/18 04:43:16;;;;;;;80.30;18.80;;;5.60;99.90;;;;;;5020025;28;20197;-88
2023/04/18 04:45:48;;;;;;;80.38;19.58;;;5.60;99.90;;;;;;5021662;28;20168;-88
2023/04/18 04:48:14;;;;;;;82.00;20.42;;;5.60;99.90;;;;;;5019974;28;20170;-89
2023/04/18 04:50:54;;;;;;;83.88;19.70;;;5.60;99.90;;;;;;5021343;28;20181;-88
2023/04/18 04:53:20;;;;;;;79.72;18.75;;;5.60;99.90;;;;;;5036270;28;20276;-88
2023/04/18 04:55:46;;;;;;;79.35;19.60;;;5.70;99.90;;;;;;5020082;28;20242;-88
2023/04/18 04:58:12;;;;;;;82.07;18.73;;;5.80;99.90;;;;;;5020887;28;20268;-88
2023/04/18 05:00:37;;;;;;;78.73;19.43;;;5.80;99.90;;;;;;5037508;28;20641;-88
2023/04/18 05:03:03;;;;;;;77.90;21.60;;;5.80;99.90;;;;;;5021158;28;20169;-91
2023/04/18 05:05:29;;;;;;;79.13;20.20;;;5.90;99.90;;;;;;5020683;28;20188;-87
2023/04/18 05:07:55;;;;;;;82.50;22.02;;;5.90;99.90;;;;;;5020766;28;20162;-88
2023/04/18 05:10:21;;;;;;;84.20;20.37;;;5.90;99.90;;;;;;5021432;28;20660;-88
2023/04/18 05:12:46;;;;;;;82.50;20.60;;;6.00;99.90;;;;;;5020275;28;20408;-88
2023/04/18 05:15:14;;;;;;;84.70;19.40;;;5.90;99.90;;;;;;5020931;28;20467;-88
2023/04/18 05:17:40;;;;;;;79.95;19.73;;;6.00;99.90;;;;;;5020800;28;20166;-88
2023/04/18 05:20:06;;;;;;;79.60;18.50;;;6.00;99.90;;;;;;5019632;28;20295;-87
2023/04/18 05:22:32;;;;;;;86.45;19.70;;;6.10;99.90;;;;;;5018472;28;20166;-88
2023/04/18 05:24:58;;;;;;;79.00;18.27;;;6.10;99.90;;;;;;5035190;28;20663;-88
2023/04/18 05:27:24;;;;;;;77.70;16.37;;;6.20;99.90;;;;;;5018767;28;20166;-88
2023/04/18 05:29:49;;;;;;;79.60;18.08;;;6.30;99.90;;;;;;5019409;28;20180;-87
2023/04/18 05:32:15;;;;;;;79.77;20.27;;;6.40;99.90;;;;;;5018458;28;20677;-87
2023/04/18 05:34:43;;;;;;;77.20;17.50;;;6.40;99.90;;;;;;5019187;28;20194;-88
2023/04/18 05:37:09;;;;;;;79.18;19.10;;;6.50;99.90;;;;;;5035352;28;20482;-88
2023/04/18 05:39:35;;;;;;;79.67;18.37;;;6.60;99.90;;;;;;5020535;28;20611;-88
2023/04/18 05:42:01;;;;;;;79.30;17.87;;;6.70;99.90;;;;;;5019760;28;20161;-88
2023/04/18 05:44:28;;;;;;;79.53;17.02;;;6.90;99.90;;;;;;5018354;28;20211;-88
2023/04/18 05:46:54;;;;;;;79.93;17.25;;;7.00;99.90;;;;;;5018151;28;20173;-88
2023/04/18 05:49:20;;;;;;;84.43;18.70;;;7.20;99.90;;;;;;5019975;28;20170;-87
2023/04/18 05:51:48;;;;;;;79.53;16.27;;;7.40;99.90;;;;;;5018914;28;20397;-87
2023/04/18 05:54:18;;;;;;;82.70;18.75;;;7.50;99.90;;;;;;5017950;28;20192;-87
2023/04/18 05:56:43;;;;;;;80.05;16.77;;;7.70;99.90;;;;;;5019403;28;20169;-87
2023/04/18 05:59:09;;;;;;;79.33;19.70;;;7.80;99.90;;;;;;5019304;28;20336;-88
2023/04/18 06:01:35;;;;;;;88.07;23.20;;;7.90;99.90;;;;;;5018329;28;20653;-87
2023/04/18 06:04:00;;;;;;;80.10;19.90;;;8.10;99.90;;;;;;5018134;28;20939;-88
2023/04/18 06:06:26;;;;;;;82.33;18.80;;;8.20;99.90;;;;;;5032618;28;20260;-87
2023/04/18 06:08:58;;;;;;;77.47;17.17;;;8.30;99.90;;;;;;5014966;28;20537;-85
2023/04/18 06:11:24;;;;;;;80.05;15.57;;;8.50;96.50;;;;;;5014843;28;20170;-85
2023/04/18 06:13:50;;;;;;;78.50;14.60;;;8.40;89.10;;;;;;5015430;28;20270;-86
2023/04/18 06:16:15;;;;;;;81.40;15.17;;;8.50;90.00;;;;;;5030248;28;20178;-86
2023/04/18 06:18:41;;;;;;;77.10;14.40;;;8.50;80.30;;;;;;5014457;28;20193;-86
2023/04/18 06:21:07;;;;;;;77.37;14.57;;;8.50;81.40;;;;;;5014201;28;20641;-86
2023/04/18 06:23:32;;;;;;;78.00;13.47;;;8.60;76.30;;;;;;5014647;28;20193;-86
2023/04/18 06:25:59;;;;;;;77.97;14.07;;;8.60;75.80;;;;;;5031614;28;20200;-86
2023/04/18 06:28:25;;;;;;;76.50;13.90;;;8.70;72.90;;;;;;5016352;28;20174;-86
2023/04/18 06:30:51;;;;;;;78.90;14.33;;;8.70;69.70;;;;;;5031525;28;20256;-86
2023/04/18 06:33:17;;;;;;;75.07;12.80;;;8.60;69.60;;;;;;5016448;28;20487;-85
2023/04/18 06:35:42;;;;;;;81.73;12.97;;;8.60;76.80;;;;;;5015895;28;20169;-86
2023/04/18 06:38:10;;;;;;;82.43;14.73;;;8.70;66.40;;;;;;5031387;28;20201;-86
2023/04/18 06:40:36;;;;;;;76.68;13.90;;;8.70;66.60;;;;;;5016714;28;20541;-86
2023/04/18 06:43:01;;;;;;;77.63;12.77;;;8.70;61.10;;;;;;5016803;28;20158;-87
2023/04/18 06:45:29;;;;;;;77.17;13.80;;;8.70;63.60;;;;;;5019342;28;20625;-88
2023/04/18 06:47:55;;;;;;;75.93;13.43;;;8.80;67.20;;;;;;5017642;28;20283;-87
2023/04/18 06:50:23;;;;;;;78.80;13.67;;;8.90;59.30;;;;;;5019049;28;20158;-87
2023/04/18 06:52:49;;;;;;;79.32;14.70;;;9.00;57.70;;;;;;5018926;28;20245;-89
2023/04/18 06:55:15;;;;;;;79.30;13.43;;;9.00;48.90;;;;;;5035468;28;20281;-87
2023/04/18 06:57:42;;;;;;;77.18;12.88;;;9.10;50.80;;;;;;5018659;28;20587;-87
2023/04/18 07:00:09;;;;;;;77.28;11.70;;;9.10;47.10;;;;;;5018052;28;20200;-87
2023/04/18 07:02:38;;;;;;;87.65;13.45;;;9.10;39.20;;;;;;5019191;28;20538;-87
2023/04/18 07:05:05;;;;;;;77.22;13.52;;;9.10;37.50;;;;;;5019473;28;20202;-87
2023/04/18 07:07:33;;;;;;;74.35;11.10;;;9.10;37.50;;;;;;5021507;28;20170;-87
2023/04/18 07:09:59;;;;;;;77.47;12.75;;;9.20;44.30;;;;;;5021627;28;20181;-87
2023/04/18 07:12:24;;;;;;;77.50;13.68;;;9.30;44.60;;;;;;5022673;28;20180;-87
2023/04/18 07:14:54;;;;;;;74.67;11.83;;;9.50;38.00;;;;;;5037274;28;20213;-87
2023/04/18 07:17:22;;;;;;;76.28;11.40;;;9.60;27.00;;;;;;5036941;28;20196;-87
2023/04/18 07:19:48;;;;;;;74.25;12.40;;;9.60;21.60;;;;;;5036880;28;20208;-87
2023/04/18 07:22:13;;;;;;;73.53;10.43;;;9.70;18.20;;;;;;5021755;28;20162;-87
2023/04/18 07:24:42;;;;;;;74.77;10.67;;;9.80;22.00;;;;;;5020421;28;20186;-87
2023/04/18 07:27:08;;;;;;;77.88;11.30;;;9.90;15.90;;;;;;5021961;28;20220;-87
2023/04/18 07:29:35;;;;;;;73.17;10.23;;;10.00;9.80;;;;;;5020444;28;20170;-87
2023/04/18 07:32:00;;;;;;;73.30;10.25;;;10.00;13.30;;;;;;5021611;28;20491;-87
2023/04/18 07:34:28;;;;;;;71.37;10.10;;;10.20;11.60;;;;;;5021795;28;20206;-87
2023/04/18 07:36:58;;;;;;;73.38;11.77;;;10.30;8.80;;;;;;5020965;28;20769;-87
2023/04/18 07:39:24;;;;;;;74.90;9.75;;;10.30;1.40;;;;;;5020961;28;20189;-87
2023/04/18 07:41:50;;;;;;;75.07;10.80;;;10.40;3.20;;;;;;5019976;28;20170;-87
2023/04/18 07:44:15;;;;;;;72.60;9.40;;;10.40;3.50;;;;;;5020746;28;20205;-88
2023/04/18 07:46:41;;;;;;;75.50;9.80;;;10.60;3.40;;;;;;5037008;28;20408;-87
2023/04/18 07:49:07;;;;;;;71.27;9.37;;;10.70;3.70;;;;;;5021925;28;20173;-88
2023/04/18 07:51:33;;;;;;;73.20;9.00;;;10.70;1.10;;;;;;5019691;28;20252;-88
2023/04/18 07:53:59;;;;;;;73.18;8.80;;;10.80;1.00;;;;;;5019595;28;20192;-87
2023/04/18 07:56:29;;;;;;;71.60;8.90;;;10.70;1.00;;;;;;5020414;28;20253;-87
2023/04/18 07:58:55;;;;;;;69.38;7.45;;;10.60;1.00;;;;;;5018850;28;20502;-88
2023/04/18 08:01:23;;;;;;;69.73;7.43;;;10.50;1.00;;;;;;5035565;28;20166;-88
2023/04/18 08:11:57;;;;;;;70.82;8.65;;;10.50;1.00;;;;;;4962765;28;20181;-83
2023/04/18 08:14:42;;;;;;;;;;;;;;;;;;;;;
2023/04/18 08:17:31;;;;;;;69.90;8.55;;;10.50;1.00;;;;;;5000892;28;20255;-83
2023/04/18 08:20:35;;;;;;;70.80;8.27;;;10.50;1.00;;;;;;4983952;28;20206;-83
2023/04/18 08:27:42;;;;;;;73.63;8.80;;;10.70;1.00;;;;;;4930413;29;20207;-83
2023/04/18 08:30:21;;;;;;;72.55;8.13;;;10.60;1.00;;;;;;4978773;28;20171;-83
2023/04/18 08:33:00;;;;;;;;;;;;;;;;;;;;;
2023/04/18 08:41:44;;;;;;;70.10;8.52;;;10.80;1.00;;;;;;5000647;28;20171;-83
2023/04/18 08:44:27;;;;;;;71.63;9.68;;;10.90;1.00;;;;;;5000129;28;20193;-83
2023/04/18 08:47:02;;;;;;;76.07;9.25;;;11.00;1.00;;;;;;5002060;28;20617;-83
2023/04/18 08:49:43;;;;;;;71.18;7.93;;;10.90;1.00;;;;;;5000203;28;20154;-83
2023/04/18 08:52:38;;;;;;;74.50;8.60;;;10.80;1.00;;;;;;5000558;28;20175;-83
2023/04/18 08:55:33;;;;;;;75.53;9.88;;;11.00;1.00;;;;;;4998995;28;20682;-83
2023/04/18 08:58:58;;;;;;;;;;;;;;;;;;;;;
2023/04/18 09:02:04;;;;;;;72.80;8.50;;;11.10;1.00;;;;;;4982153;28;20282;-83
2023/04/18 09:08:08;;;;;;;;;;;;;;;;;;;;;
2023/04/18 09:10:42;;;;;;;73.40;8.35;;;11.30;1.00;;;;;;5000573;28;20258;-83
2023/04/18 09:13:55;;;;;;;;;;;;;;;;;;;;;
2023/04/18 09:20:52;;;;;;;;;;;;;;;;;;;;;
2023/04/18 09:23:37;;;;;;;71.30;8.68;;;11.40;1.00;;;;;;4984758;28;20277;-83
2023/04/18 09:26:10;;;;;;;70.32;7.63;;;11.40;1.00;;;;;;5001549;28;20163;-83
2023/04/18 09:29:16;;;;;;;71.25;8.13;;;11.50;1.00;;;;;;4999908;28;20527;-83
2023/04/18 09:32:41;;;;;;;71.18;8.30;;;11.60;1.00;;;;;;4992188;28;20201;-83
2023/04/18 09:35:42;;;;;;;70.63;8.15;;;11.60;1.00;;;;;;5000357;28;20195;-83
2023/04/18 09:38:21;;;;;;;;;;;;;;;;;;;;;
2023/04/18 09:41:31;;;;;;;70.13;7.72;;;11.80;1.00;;;;;;4999491;28;20255;-83
2023/04/18 09:47:39;;;;;;;74.28;8.88;;;12.10;1.00;;;;;;5001254;28;20162;-83
2023/04/18 09:50:19;;;;;;;71.45;8.88;;;11.90;1.00;;;;;;4999028;28;20175;-83
2023/04/18 09:53:24;;;;;;;71.50;8.23;;;12.10;1.00;;;;;;5001897;28;20170;-83
2023/04/18 09:56:52;;;;;;;;;;;;;;;;;;;;;
2023/04/18 10:00:12;;;;;;;;;;;;;;;;;;;;;
2023/04/18 10:03:45;;;;;;;;;;;;;;;;;;;;;
2023/04/18 10:06:21;;;;;;;69.82;8.85;;;12.10;1.00;;;;;;4959019;29;20247;-83
2023/04/18 10:09:15;;;;;;;;;;;;;;;;;;;;;
2023/04/18 10:12:47;;;;;;;;;;;;;;;;;;;;;
2023/04/18 10:15:28;;;;;;;69.53;8.02;;;12.00;1.00;;;;;;4997153;28;20253;-83
2023/04/18 10:19:18;;;;;;;70.35;9.52;;;12.10;1.00;;;;;;4998428;28;20269;-83
2023/04/18 10:28:27;;;;;;;71.00;9.15;;;13.50;1.00;;;;;;5011853;28;20175;-82
2023/04/18 10:31:09;;;;;;;71.00;9.00;;;14.00;1.00;;;;;;5001532;28;20173;-83
2023/04/18 10:34:20;;;;;;;69.93;8.65;;;14.40;1.00;;;;;;5000595;28;20193;-83
2023/04/18 10:37:24;;;;;;;;;;;;;;;;;;;;;
2023/04/18 10:40:01;;;;;;;69.67;8.90;;;14.20;1.00;;;;;;4979274;28;20564;-83
2023/04/18 10:42:56;;;;;;;68.77;8.00;;;13.90;1.00;;;;;;5002763;28;20925;-83
2023/04/18 10:45:55;;;;;;;69.77;8.67;;;13.70;1.00;;;;;;4997577;28;20492;-84
2023/04/18 10:49:26;;;;;;;69.80;8.67;;;13.70;1.00;;;;;;4982084;28;20505;-83
2023/04/18 10:52:17;;;;;;;69.33;8.23;;;13.70;1.00;;;;;;4981478;28;20399;-83
2023/04/18 10:55:37;;;;;;;69.40;8.00;;;14.30;1.00;;;;;;4966605;28;20866;-84
2023/04/18 11:02:02;;;;;;;71.27;8.30;;;13.90;1.00;;;;;;5001381;28;20434;-83
2023/04/18 11:05:00;;;;;;;70.60;8.40;;;13.80;1.00;;;;;;5000544;28;20480;-83
2023/04/18 11:08:11;;;;;;;;;;;;;;;;;;;;;
2023/04/18 11:11:29;;;;;;;68.37;6.90;;;13.80;1.00;;;;;;5000442;28;20476;-83
2023/04/18 11:17:42;;;;;;;71.30;8.10;;;14.10;1.00;;;;;;4981138;28;20437;-83
2023/04/18 11:21:12;;;;;;;70.37;8.80;;;14.10;1.00;;;;;;4980644;28;20881;-83
2023/04/18 11:24:18;;;;;;;72.50;7.87;;;14.00;1.00;;;;;;4981827;28;20430;-83
2023/04/18 11:26:55;;;;;;;70.70;8.63;;;14.20;1.00;;;;;;5001612;28;20401;-83
2023/04/18 11:30:08;;;;;;;70.00;8.70;;;14.00;1.00;;;;;;5002112;28;20382;-83
2023/04/18 11:35:43;;;;;;;70.18;8.85;;;13.80;1.00;;;;;;5070483;23;20499;-83
2023/04/18 11:38:47;;;;;;;;;;;;;;;;;;;;;
2023/04/18 11:41:55;;;;;;;69.10;7.97;;;13.80;1.00;;;;;;5040640;28;20507;-83
2023/04/18 11:47:41;;;;;;;70.80;8.80;;;13.90;1.00;;;;;;5039714;28;20412;-83
2023/04/18 11:54:01;;;;;;;70.13;8.50;;;14.30;1.00;;;;;;5038734;28;20418;-83
2023/04/18 12:03:39;;;;;;;71.40;8.53;;;14.60;1.00;;;;;;4998677;28;20543;-83
2023/04/18 12:06:11;;;;;;;70.90;8.30;;;14.60;1.00;;;;;;5001144;28;20405;-83
2023/04/18 12:09:14;;;;;;;70.30;8.00;;;14.60;1.00;;;;;;5018874;28;20420;-83
2023/04/18 12:15:28;;;;;;;68.47;7.90;;;14.40;1.00;;;;;;5018045;28;20944;-84
2023/04/18 12:28:47;;;;;;;177.13;162.17;;;14.70;1.00;;;;;;5021008;28;20432;-83
2023/04/18 12:35:00;;;;;;;71.07;9.60;;;14.90;1.00;;;;;;4937936;29;20441;-83
2023/04/18 12:37:32;;;;;;;74.17;8.20;;;14.90;1.00;;;;;;4927007;29;20510;-83
2023/04/18 12:40:12;;;;;;;69.57;7.60;;;14.90;1.00;;;;;;4982788;28;21019;-83
2023/04/18 12:42:49;;;;;;;72.50;9.10;;;15.00;1.00;;;;;;5002299;28;20397;-83
2023/04/18 12:45:24;;;;;;;69.20;7.73;;;15.10;1.00;;;;;;5002175;28;20406;-83
2023/04/18 12:48:12;;;;;;;72.00;7.67;;;14.90;1.00;;;;;;4999823;28;20424;-83
2023/04/18 12:50:43;;;;;;;69.17;8.10;;;14.90;1.00;;;;;;5001903;28;20459;-84
2023/04/18 12:53:36;;;;;;;72.00;8.97;;;15.00;1.00;;;;;;5000896;28;20440;-84
2023/04/18 12:56:01;;;;;;;70.30;8.30;;;15.10;1.00;;;;;;5000077;28;20386;-83
2023/04/18 12:59:10;;;;;;;67.97;7.43;;;15.20;1.00;;;;;;4999163;28;20444;-83
2023/04/18 13:02:16;;;;;;;71.17;8.53;;;15.20;1.00;;;;;;5000662;28;20146;-83
2023/04/18 13:05:28;;;;;;;68.40;7.53;;;15.00;1.00;;;;;;4997284;28;20516;-84
2023/04/18 13:07:57;;;;;;;68.97;7.20;;;15.10;1.00;;;;;;4988893;28;20418;-84
2023/04/18 13:10:48;;;;;;;70.10;8.40;;;15.20;1.00;;;;;;4999816;28;20441;-84
2023/04/18 13:13:25;;;;;;;69.20;8.63;;;15.30;1.00;;;;;;5001747;28;20809;-84
2023/04/18 13:16:02;;;;;;;70.90;7.97;;;15.30;1.00;;;;;;4998724;28;20416;-83
2023/04/18 13:18:34;;;;;;;69.87;8.30;;;15.30;1.00;;;;;;4999584;28;20972;-83
2023/04/18 13:21:09;;;;;;;70.10;8.80;;;15.30;1.00;;;;;;5001905;28;20441;-83
2023/04/18 13:23:46;;;;;;;69.70;7.87;;;15.30;1.00;;;;;;5001623;28;20421;-83
2023/04/18 13:26:12;;;;;;;69.13;8.10;;;15.10;1.00;;;;;;5001044;28;20440;-83
2023/04/18 13:28:46;;;;;;;69.00;7.90;;;15.00;1.00;;;;;;5002084;28;20489;-83
2023/04/18 13:31:23;;;;;;;68.70;7.67;;;15.40;1.00;;;;;;5002693;28;20511;-85
2023/04/18 13:34:02;;;;;;;70.50;8.20;;;15.90;1.00;;;;;;5003064;28;20472;-84
2023/04/18 13:36:28;;;;;;;69.30;8.30;;;16.10;1.00;;;;;;5000239;28;20414;-84
2023/04/18 13:39:03;;;;;;;70.93;8.17;;;16.40;1.00;;;;;;5000501;28;20848;-83
2023/04/18 13:41:31;;;;;;;69.87;7.10;;;16.40;1.00;;;;;;4999473;28;20489;-84
2023/04/18 13:44:03;;;;;;;68.90;6.93;;;16.50;1.00;;;;;;4998554;28;20430;-84
2023/04/18 13:46:38;;;;;;;72.10;8.10;;;16.80;1.00;;;;;;5003200;28;20405;-84
2023/04/18 13:49:09;;;;;;;68.30;6.57;;;16.60;1.00;;;;;;5005667;28;20429;-84
2023/04/18 13:55:12;;;;;;;70.07;8.30;;;17.10;1.00;;;;;;4997117;28;20439;-83
2023/04/18 13:58:05;;;;;;;69.50;6.67;;;16.90;1.00;;;;;;5000760;28;20420;-84
2023/04/18 14:00:53;;;;;;;;;;;;;;;;;;;;;
2023/04/18 14:05:49;;;;;;;72.73;8.97;;;17.10;1.00;;;;;;5106698;23;20539;-80
2023/04/18 14:08:15;;;;;;;70.90;7.80;;;17.00;1.00;;;;;;5037606;28;20394;-81
2023/04/18 14:10:41;;;;;;;70.73;9.00;;;16.70;1.00;;;;;;5038306;28;20234;-81
2023/04/18 14:13:06;;;;;;;70.33;8.43;;;16.80;1.00;;;;;;5037160;28;20684;-81
2023/04/18 14:15:32;;;;;;;70.80;7.80;;;16.50;1.00;;;;;;5034939;28;20542;-81
2023/04/18 14:17:59;;;;;;;69.07;6.90;;;16.20;1.00;;;;;;5035684;28;20286;-81
2023/04/18 14:20:25;;;;;;;68.77;7.10;;;16.20;1.00;;;;;;5037284;28;20183;-81
2023/04/18 14:22:51;;;;;;;69.87;8.13;;;16.30;1.00;;;;;;5037398;28;20408;-81
2023/04/18 14:25:17;;;;;;;70.33;7.47;;;16.50;1.00;;;;;;5036987;28;20511;-80
2023/04/18 14:27:46;;;;;;;70.63;8.00;;;16.50;1.00;;;;;;5035968;28;20165;-81
2023/04/18 14:30:13;;;;;;;69.63;7.30;;;16.40;1.00;;;;;;5036876;28;20161;-81
2023/04/18 14:32:39;;;;;;;69.57;7.20;;;16.10;1.00;;;;;;5035234;28;20502;-81
2023/04/18 14:35:08;;;;;;;70.20;7.77;;;15.90;1.00;;;;;;5036639;28;20444;-81
2023/04/18 14:37:34;;;;;;;70.17;7.37;;;15.90;1.00;;;;;;5036639;28;20773;-80
2023/04/18 14:40:00;;;;;;;71.63;7.80;;;16.10;1.00;;;;;;5036621;28;20432;-81
2023/04/18 14:42:25;;;;;;;68.57;6.93;;;16.30;1.00;;;;;;5036851;28;20400;-80
2023/04/18 14:44:56;;;;;;;73.13;8.37;;;16.30;1.00;;;;;;5036946;28;20185;-80
2023/04/18 14:47:22;;;;;;;69.30;7.03;;;16.50;1.00;;;;;;5037387;28;20148;-80
2023/04/18 14:49:48;;;;;;;70.43;7.13;;;16.40;1.00;;;;;;5035344;28;20412;-81
2023/04/18 14:52:13;;;;;;;70.97;9.63;;;16.50;1.00;;;;;;5036779;28;20174;-81
2023/04/18 14:54:39;;;;;;;69.60;8.00;;;16.60;1.00;;;;;;5036595;28;20186;-81
2023/04/18 14:57:07;;;;;;;73.47;7.27;;;16.60;1.00;;;;;;5037915;28;20183;-81
2023/04/18 14:59:32;;;;;;;71.50;8.10;;;16.80;1.00;;;;;;5040993;28;20205;-80
2023/04/18 15:01:58;;;;;;;70.80;7.87;;;16.90;1.00;;;;;;5039376;28;20405;-81
2023/04/18 15:04:23;;;;;;;71.60;9.50;;;16.90;1.00;;;;;;5037044;28;20208;-81
2023/04/18 15:06:49;;;;;;;76.90;9.13;;;17.00;1.00;;;;;;5037272;28;20167;-82
2023/04/18 15:09:15;;;;;;;71.20;9.00;;;16.90;1.00;;;;;;5037062;28;20458;-81
2023/04/18 15:11:41;;;;;;;71.10;9.00;;;17.10;1.00;;;;;;5035295;28;20345;-81
2023/04/18 15:14:07;;;;;;;73.97;10.07;;;17.10;1.00;;;;;;5036990;28;20956;-81
2023/04/18 15:16:34;;;;;;;70.47;8.73;;;16.90;1.00;;;;;;5037016;28;20163;-81
2023/04/18 15:18:59;;;;;;;74.30;9.50;;;17.00;1.00;;;;;;5037634;28;20878;-82
2023/04/18 15:21:26;;;;;;;73.33;9.87;;;17.20;1.00;;;;;;5036552;28;20410;-81
2023/04/18 15:23:51;;;;;;;74.60;10.57;;;17.30;1.00;;;;;;5035845;28;20192;-81
2023/04/18 15:26:17;;;;;;;70.50;9.67;;;17.40;1.00;;;;;;5036280;28;20412;-81
2023/04/18 15:28:44;;;;;;;72.00;10.40;;;17.30;1.00;;;;;;5039336;28;20168;-81
2023/04/18 15:31:09;;;;;;;72.77;9.90;;;17.20;1.00;;;;;;5038818;28;20254;-81
2023/04/18 15:33:35;;;;;;;71.60;9.63;;;17.20;1.00;;;;;;5040079;28;20912;-79
2023/04/18 15:36:01;;;;;;;72.20;10.20;;;17.20;1.00;;;;;;5040228;28;20164;-81
2023/04/18 15:38:26;;;;;;;71.80;11.40;;;17.40;1.00;;;;;;5040235;28;20534;-81
2023/04/18 15:40:52;;;;;;;71.30;9.33;;;17.90;1.00;;;;;;5040351;28;20189;-82
2023/04/18 15:43:18;;;;;;;75.20;11.70;;;17.60;1.00;;;;;;5039989;28;20188;-81
2023/04/18 15:45:43;;;;;;;71.80;10.60;;;17.30;1.00;;;;;;5038782;28;20193;-81
2023/04/18 15:48:10;;;;;;;75.50;13.30;;;17.10;1.00;;;;;;5038536;28;20174;-82
2023/04/18 15:50:36;;;;;;;72.27;10.07;;;16.60;1.00;;;;;;5039042;28;20198;-82
2023/04/18 15:53:02;;;;;;;69.67;8.20;;;16.20;1.00;;;;;;5038269;28;20891;-82
2023/04/18 15:55:27;;;;;;;71.07;7.97;;;16.00;1.00;;;;;;5039605;28;20420;-82
2023/04/18 15:57:54;;;;;;;70.00;7.90;;;15.90;1.00;;;;;;5039870;28;20193;-82
2023/04/18 16:00:21;;;;;;;69.77;8.67;;;15.90;1.00;;;;;;5038113;28;20252;-82
2023/04/18 16:02:47;;;;;;;68.20;7.43;;;16.00;1.00;;;;;;5038293;28;20408;-82
2023/04/18 16:05:14;;;;;;;70.87;8.30;;;16.10;1.00;;;;;;5039335;28;20439;-82
2023/04/18 16:07:41;;;;;;;70.07;7.80;;;16.10;1.00;;;;;;5038817;28;20903;-82
2023/04/18 16:10:08;;;;;;;69.47;8.23;;;16.30;1.00;;;;;;5037647;28;20408;-82
2023/04/18 16:12:38;;;;;;;72.47;8.33;;;16.20;1.00;;;;;;5038960;28;20443;-82
2023/04/18 16:15:06;;;;;;;69.70;8.03;;;16.30;1.00;;;;;;5038235;28;20436;-82
2023/04/18 16:17:31;;;;;;;70.13;8.73;;;16.30;1.00;;;;;;5039070;28;20411;-82
2023/04/18 16:19:57;;;;;;;70.70;8.67;;;16.40;1.00;;;;;;5039184;28;20453;-82
2023/04/18 16:22:22;;;;;;;72.07;10.00;;;16.40;1.00;;;;;;5039015;28;20552;-82
2023/04/18 16:24:48;;;;;;;70.10;8.23;;;16.80;1.00;;;;;;5038012;28;20733;-82
2023/04/18 16:27:14;;;;;;;70.90;8.87;;;16.80;1.00;;;;;;5038863;28;20637;-82
2023/04/18 16:29:39;;;;;;;72.50;9.70;;;16.90;1.00;;;;;;5038867;28;20178;-82
2023/04/18 16:32:05;;;;;;;69.57;8.23;;;17.10;1.00;;;;;;5038276;28;20161;-81
2023/04/18 16:34:33;;;;;;;71.57;9.03;;;17.10;1.00;;;;;;5038599;28;20190;-81
2023/04/18 16:36:59;;;;;;;70.50;9.43;;;17.20;1.00;;;;;;5038821;28;20413;-81
2023/04/18 16:39:26;;;;;;;69.97;8.20;;;17.10;1.00;;;;;;5038432;28;20442;-81
2023/04/18 16:41:52;;;;;;;71.50;8.60;;;16.90;1.00;;;;;;5037165;28;20418;-81
2023/04/18 16:44:18;;;;;;;71.40;8.43;;;17.20;1.00;;;;;;5038234;28;20426;-81